Time;durP1;ratioP1;P1;durP2;ratioP2;P2;SDS_P1;SDS_P2;PMS_P1;PMS_P2;Temp;Humidity;BMP_temperature;BMP_pressure;BME280_temperature;BME280_humidity;BME280_pressure;Samples;Min_cycle;Max_cycle;Signal;HPM_P1;HPM_P2
2022/01/08 00:00:57;;;;;;;10.75;7.68;;;3.40;99.90;;;;;;5118860;27;20027;-66
2022/01/08 00:03:23;;;;;;;10.35;7.20;;;3.50;99.90;;;;;;5120831;27;20027;-68
2022/01/08 00:05:49;;;;;;;11.88;7.65;;;3.50;99.90;;;;;;5116574;27;20024;-65
2022/01/08 00:08:15;;;;;;;11.73;8.50;;;3.60;99.90;;;;;;5115869;27;20031;-66
2022/01/08 00:10:41;;;;;;;8.13;6.78;;;3.40;99.90;;;;;;5124494;27;20027;-65
2022/01/08 00:13:08;;;;;;;10.85;6.68;;;3.40;99.90;;;;;;5124942;27;20484;-65
2022/01/08 00:15:34;;;;;;;7.93;6.78;;;3.30;99.90;;;;;;5122439;27;20023;-66
2022/01/08 00:18:00;;;;;;;8.60;6.68;;;3.30;99.90;;;;;;5125356;27;20028;-64
2022/01/08 00:20:28;;;;;;;7.85;6.30;;;3.20;99.90;;;;;;5126079;27;20031;-64
2022/01/08 00:22:55;;;;;;;10.88;6.70;;;3.20;99.90;;;;;;5126132;27;20561;-64
2022/01/08 00:25:20;;;;;;;9.65;6.72;;;3.10;99.90;;;;;;5125222;27;20015;-66
2022/01/08 00:27:46;;;;;;;9.23;6.85;;;3.20;99.90;;;;;;5125255;27;20023;-66
2022/01/08 00:30:13;;;;;;;7.38;6.53;;;3.30;99.90;;;;;;5125781;27;20034;-67
2022/01/08 00:32:42;;;;;;;8.82;6.45;;;3.30;99.90;;;;;;5123893;27;20028;-66
2022/01/08 00:35:09;;;;;;;7.18;5.88;;;3.40;99.90;;;;;;5122679;27;20056;-64
2022/01/08 00:37:37;;;;;;;8.35;5.63;;;3.30;99.90;;;;;;5130459;27;20058;-67
2022/01/08 00:40:05;;;;;;;8.50;5.00;;;3.20;99.90;;;;;;5125916;27;20020;-65
2022/01/08 00:42:30;;;;;;;6.28;5.38;;;3.20;99.90;;;;;;5118163;27;20043;-65
2022/01/08 00:44:56;;;;;;;7.05;5.13;;;3.20;99.90;;;;;;5116725;28;20028;-68
2022/01/08 00:47:22;;;;;;;6.53;5.13;;;3.20;99.90;;;;;;5114114;28;20483;-66
2022/01/08 00:49:48;;;;;;;7.80;5.35;;;3.20;99.90;;;;;;5113903;28;20393;-65
2022/01/08 00:52:13;;;;;;;6.40;4.95;;;3.20;99.90;;;;;;5113078;28;20088;-65
2022/01/08 00:54:39;;;;;;;6.55;4.55;;;3.20;99.90;;;;;;5114947;28;20023;-65
2022/01/08 00:57:05;;;;;;;6.70;4.82;;;3.30;99.90;;;;;;5115608;28;20026;-64
2022/01/08 00:59:32;;;;;;;6.20;4.85;;;3.30;99.90;;;;;;5115267;28;20103;-65
2022/01/08 01:01:57;;;;;;;9.40;5.18;;;3.30;99.90;;;;;;5114239;28;20456;-68
2022/01/08 01:04:23;;;;;;;6.37;5.60;;;3.30;99.90;;;;;;5119348;27;20019;-65
2022/01/08 01:06:49;;;;;;;6.13;5.07;;;3.30;99.90;;;;;;5132778;27;20035;-65
2022/01/08 01:09:14;;;;;;;7.32;6.03;;;3.30;99.90;;;;;;5114167;28;20028;-64
2022/01/08 01:11:40;;;;;;;7.97;5.40;;;3.40;99.90;;;;;;5113173;28;20030;-65
2022/01/08 01:14:06;;;;;;;8.60;5.07;;;3.40;99.90;;;;;;5112658;28;20080;-64
2022/01/08 01:16:32;;;;;;;7.80;5.72;;;3.40;99.90;;;;;;5114475;28;20036;-70
2022/01/08 01:19:00;;;;;;;8.27;5.45;;;3.40;99.90;;;;;;5114893;28;20027;-68
2022/01/08 01:21:26;;;;;;;7.38;5.47;;;3.50;99.90;;;;;;5113635;28;20083;-66
2022/01/08 01:23:52;;;;;;;9.00;6.10;;;3.50;99.90;;;;;;5114559;28;20318;-65
2022/01/08 01:26:23;;;;;;;7.43;5.72;;;3.60;99.90;;;;;;5112025;28;20217;-66
2022/01/08 01:29:14;;;;;;;8.00;6.15;;;3.50;99.90;;;;;;5113564;28;20148;-65
2022/01/08 01:43:05;;;;;;;11.05;6.40;;;3.60;99.90;;;;;;5114223;28;20030;-65
2022/01/08 01:48:11;;;;;;;10.10;7.20;;;3.60;99.90;;;;;;5113373;28;20228;-65
2022/01/08 01:50:36;;;;;;;7.78;6.80;;;3.60;99.90;;;;;;5114204;28;20129;-65
2022/01/08 01:53:02;;;;;;;9.63;6.30;;;3.60;99.90;;;;;;5113704;28;20127;-66
2022/01/08 01:55:28;;;;;;;9.50;6.60;;;3.50;99.90;;;;;;5114009;27;20453;-66
2022/01/08 01:57:54;;;;;;;7.43;6.10;;;3.50;99.90;;;;;;5113733;28;20031;-65
2022/01/08 02:00:19;;;;;;;7.80;6.20;;;3.40;99.90;;;;;;5112827;28;20124;-65
2022/01/08 02:02:45;;;;;;;10.50;6.60;;;3.50;99.90;;;;;;5113850;28;20020;-65
2022/01/08 02:05:11;;;;;;;9.38;6.40;;;3.40;99.90;;;;;;5112722;28;20210;-65
2022/01/08 02:07:36;;;;;;;9.63;6.07;;;3.30;99.90;;;;;;5113808;28;20389;-65
2022/01/08 02:10:03;;;;;;;7.95;5.90;;;3.30;99.90;;;;;;5113238;28;20080;-67
2022/01/08 02:12:32;;;;;;;9.85;6.32;;;3.20;99.90;;;;;;5113333;28;20552;-72
2022/01/08 02:14:58;;;;;;;8.57;6.90;;;3.10;99.90;;;;;;5114241;28;20034;-69
2022/01/08 02:17:24;;;;;;;7.57;5.70;;;3.10;99.90;;;;;;5111832;28;20111;-65
2022/01/08 02:19:54;;;;;;;6.93;5.57;;;3.00;99.90;;;;;;5114420;28;20096;-67
2022/01/08 02:22:20;;;;;;;6.72;5.57;;;3.00;99.90;;;;;;5112932;28;20048;-65
2022/01/08 02:24:47;;;;;;;8.60;6.30;;;3.00;99.90;;;;;;5114004;28;20495;-65
2022/01/08 02:27:14;;;;;;;6.18;5.15;;;3.00;99.90;;;;;;5113155;28;20055;-68
2022/01/08 02:29:40;;;;;;;6.95;5.93;;;3.00;99.90;;;;;;5113396;28;20023;-64
2022/01/08 02:32:12;;;;;;;7.60;6.00;;;2.90;99.90;;;;;;5111407;28;20020;-64
2022/01/08 02:34:39;;;;;;;;;;;2.80;99.90;;;;;;5113932;28;20030;-65
2022/01/08 02:37:07;;;;;;;5.85;4.90;;;2.70;99.90;;;;;;5111329;28;19904;-65
2022/01/08 02:39:38;;;;;;;6.30;5.05;;;2.70;99.90;;;;;;5113253;28;20461;-65
2022/01/08 02:42:06;;;;;;;8.25;5.18;;;2.70;99.90;;;;;;5111146;28;20384;-67
2022/01/08 02:44:32;;;;;;;6.65;4.53;;;2.70;99.90;;;;;;5113001;28;20019;-66
2022/01/08 02:46:57;;;;;;;6.85;4.53;;;2.60;99.90;;;;;;5113105;28;20483;-68
2022/01/08 02:49:23;;;;;;;5.90;4.30;;;2.70;99.90;;;;;;5112660;28;20236;-65
2022/01/08 02:51:50;;;;;;;4.10;3.67;;;2.70;99.90;;;;;;5111887;28;20179;-68
2022/01/08 02:54:16;;;;;;;3.63;3.08;;;2.60;99.90;;;;;;5111994;28;20487;-65
2022/01/08 02:56:44;;;;;;;4.40;2.70;;;2.60;99.90;;;;;;5112350;28;20529;-65
2022/01/08 02:59:10;;;;;;;3.03;2.20;;;2.60;99.90;;;;;;5112325;28;20039;-65
2022/01/08 03:01:36;;;;;;;2.03;1.83;;;2.60;99.90;;;;;;5111339;28;20076;-65
2022/01/08 03:04:03;;;;;;;1.42;1.33;;;2.50;99.90;;;;;;5112397;28;20032;-65
2022/01/08 03:06:28;;;;;;;1.63;1.52;;;2.60;99.90;;;;;;5112146;28;20081;-65
2022/01/08 03:08:54;;;;;;;2.33;1.52;;;2.60;99.90;;;;;;5112458;28;20044;-65
2022/01/08 03:11:20;;;;;;;1.77;1.50;;;2.60;99.90;;;;;;5112166;28;20066;-65
2022/01/08 03:13:46;;;;;;;1.40;1.27;;;2.60;99.90;;;;;;5112898;28;20465;-65
2022/01/08 03:16:12;;;;;;;1.58;1.30;;;2.50;99.90;;;;;;5110673;28;20035;-66
2022/01/08 03:18:38;;;;;;;1.10;1.00;;;2.60;99.90;;;;;;5111184;28;20027;-64
2022/01/08 03:21:16;;;;;;;1.13;1.02;;;2.60;99.90;;;;;;5112517;28;20056;-66
2022/01/08 03:26:40;;;;;;;1.30;1.20;;;2.50;99.90;;;;;;5103413;28;20093;-64
2022/01/08 03:29:07;;;;;;;1.77;1.15;;;2.50;99.90;;;;;;5112724;28;20023;-67
2022/01/08 03:31:33;;;;;;;1.00;0.80;;;2.60;99.90;;;;;;5113341;28;20032;-66
2022/01/08 03:33:59;;;;;;;0.50;0.45;;;2.50;99.90;;;;;;5112942;28;20023;-64
2022/01/08 03:36:25;;;;;;;1.10;0.90;;;2.60;99.90;;;;;;5111583;28;20080;-66
2022/01/08 03:38:52;;;;;;;0.57;0.50;;;2.60;99.90;;;;;;5112710;28;20087;-67
2022/01/08 03:41:18;;;;;;;0.73;0.60;;;2.60;99.90;;;;;;5110649;28;20026;-65
2022/01/08 03:43:43;;;;;;;0.55;0.45;;;2.70;99.90;;;;;;5110623;28;20118;-65
2022/01/08 03:46:11;;;;;;;0.50;0.43;;;2.70;99.90;;;;;;5111826;28;20027;-65
2022/01/08 03:51:20;;;;;;;1.00;0.38;;;2.70;99.90;;;;;;5111397;28;20085;-64
2022/01/08 03:53:46;;;;;;;0.90;0.85;;;2.60;99.90;;;;;;5111795;28;20032;-66
2022/01/08 03:56:11;;;;;;;0.60;0.45;;;2.60;99.90;;;;;;5111523;28;20032;-65
2022/01/08 03:58:37;;;;;;;0.50;0.45;;;2.60;99.90;;;;;;5112370;28;20024;-65
2022/01/08 04:01:03;;;;;;;0.65;0.25;;;2.50;99.90;;;;;;5110771;28;20030;-65
2022/01/08 04:03:29;;;;;;;1.20;0.70;;;2.50;99.90;;;;;;5110222;28;20146;-64
2022/01/08 04:05:55;;;;;;;0.60;0.40;;;2.50;99.90;;;;;;5111719;28;20042;-65
2022/01/08 04:08:20;;;;;;;0.40;0.20;;;2.60;99.90;;;;;;5113338;28;20061;-65
2022/01/08 04:10:46;;;;;;;0.30;0.20;;;2.70;99.90;;;;;;5113452;28;20077;-65
2022/01/08 04:13:16;;;;;;;0.30;0.30;;;2.60;99.90;;;;;;5111958;28;20148;-65
2022/01/08 04:15:45;;;;;;;0.30;0.20;;;2.70;99.90;;;;;;5112309;28;20030;-64
2022/01/08 04:18:10;;;;;;;0.20;0.20;;;2.60;99.90;;;;;;5111572;28;20030;-66
2022/01/08 04:21:21;;;;;;;0.50;0.40;;;2.50;99.90;;;;;;5110359;28;20036;-65
2022/01/08 04:23:24;;;;;;;0.55;0.38;;;2.50;99.90;;;;;;5112107;27;20054;-66
2022/01/08 04:25:50;;;;;;;0.40;0.40;;;2.50;99.90;;;;;;5115382;28;20106;-64
2022/01/08 04:28:16;;;;;;;1.23;0.40;;;2.50;99.90;;;;;;5114845;28;20043;-64
2022/01/08 04:30:42;;;;;;;0.40;0.20;;;2.50;99.90;;;;;;5113642;28;20024;-64
2022/01/08 04:33:08;;;;;;;0.80;0.50;;;2.60;99.90;;;;;;5114201;28;20034;-65
2022/01/08 04:35:34;;;;;;;0.38;0.30;;;2.60;99.90;;;;;;5114530;28;20469;-64
2022/01/08 04:38:02;;;;;;;2.40;0.40;;;2.60;99.90;;;;;;5115299;27;20026;-64
2022/01/08 04:40:28;;;;;;;1.40;0.65;;;2.60;99.90;;;;;;5114917;28;20035;-64
2022/01/08 04:42:54;;;;;;;0.93;0.60;;;2.50;99.90;;;;;;5115535;28;20157;-64
2022/01/08 04:45:22;;;;;;;1.20;0.70;;;2.40;99.90;;;;;;5115379;28;20039;-65
2022/01/08 04:47:47;;;;;;;0.88;0.63;;;2.50;99.90;;;;;;5115660;28;20031;-64
2022/01/08 04:50:13;;;;;;;0.80;0.65;;;2.50;99.90;;;;;;5114647;28;20039;-64
2022/01/08 04:52:40;;;;;;;0.70;0.50;;;2.50;99.90;;;;;;5115340;28;20028;-64
2022/01/08 04:55:06;;;;;;;0.75;0.52;;;2.40;99.90;;;;;;5113792;28;20039;-64
2022/01/08 04:57:32;;;;;;;1.65;0.68;;;2.40;99.90;;;;;;5114586;28;20027;-63
2022/01/08 04:59:57;;;;;;;0.98;0.40;;;2.40;99.90;;;;;;5114566;28;20031;-68
2022/01/08 05:02:23;;;;;;;0.88;0.60;;;2.50;99.90;;;;;;5113017;28;20027;-65
2022/01/08 05:04:49;;;;;;;1.88;0.82;;;2.40;99.90;;;;;;5114424;28;20032;-64
2022/01/08 05:07:14;;;;;;;1.02;0.60;;;2.40;99.90;;;;;;5114342;28;20100;-64
2022/01/08 05:09:40;;;;;;;1.95;0.57;;;2.40;99.90;;;;;;5115326;28;20051;-67
2022/01/08 05:12:06;;;;;;;0.68;0.32;;;2.40;99.90;;;;;;5115252;28;20115;-66
2022/01/08 05:14:32;;;;;;;1.05;0.70;;;2.50;99.90;;;;;;5114787;28;20655;-66
2022/01/08 05:17:00;;;;;;;2.90;0.68;;;2.50;99.90;;;;;;5115270;27;20023;-65
2022/01/08 05:19:41;;;;;;;2.10;0.90;;;2.50;99.90;;;;;;5113852;28;20406;-66
2022/01/08 05:22:09;;;;;;;1.30;0.90;;;2.50;99.90;;;;;;5114340;28;20477;-65
2022/01/08 05:24:35;;;;;;;1.58;1.02;;;2.60;99.90;;;;;;5113863;28;20020;-65
2022/01/08 05:27:03;;;;;;;3.17;1.10;;;2.70;99.90;;;;;;5114371;28;20039;-65
2022/01/08 05:29:30;;;;;;;2.92;0.90;;;2.70;99.90;;;;;;5113902;28;20020;-65
2022/01/08 05:31:55;;;;;;;1.10;0.90;;;2.70;99.90;;;;;;5114014;28;20437;-64
2022/01/08 05:34:21;;;;;;;2.97;0.90;;;2.70;99.90;;;;;;5112685;28;20064;-64
2022/01/08 05:36:47;;;;;;;1.45;0.98;;;2.60;99.90;;;;;;5114186;28;20030;-64
2022/01/08 05:39:12;;;;;;;2.20;1.05;;;2.60;99.90;;;;;;5114149;28;20019;-64
2022/01/08 05:41:38;;;;;;;1.00;0.90;;;2.50;99.90;;;;;;5113766;28;20409;-64
2022/01/08 05:44:04;;;;;;;2.85;0.90;;;2.60;99.90;;;;;;5114716;28;20020;-70
2022/01/08 05:46:29;;;;;;;2.40;1.35;;;2.60;99.90;;;;;;5112243;28;20465;-69
2022/01/08 05:49:00;;;;;;;2.92;1.00;;;2.60;99.90;;;;;;5112959;28;20465;-66
2022/01/08 05:51:26;;;;;;;2.53;1.30;;;2.60;99.90;;;;;;5113305;28;20023;-68
2022/01/08 05:53:51;;;;;;;1.30;1.20;;;2.50;99.90;;;;;;5113595;28;20027;-67
2022/01/08 05:56:17;;;;;;;2.67;1.40;;;2.50;99.90;;;;;;5111917;28;20367;-65
2022/01/08 05:58:42;;;;;;;2.30;1.42;;;2.50;99.90;;;;;;5113768;28;20030;-65
2022/01/08 06:01:08;;;;;;;2.92;1.33;;;2.60;99.90;;;;;;5113440;28;20047;-64
2022/01/08 06:03:34;;;;;;;1.40;0.77;;;2.60;99.90;;;;;;5113010;28;20087;-63
2022/01/08 06:05:59;;;;;;;2.42;1.10;;;2.60;99.90;;;;;;5113567;28;20081;-63
2022/01/08 06:08:25;;;;;;;3.58;1.40;;;2.70;99.90;;;;;;5111524;28;20358;-65
2022/01/08 06:10:51;;;;;;;1.02;0.82;;;2.70;99.90;;;;;;5112126;28;20024;-64
2022/01/08 06:13:16;;;;;;;2.55;1.30;;;2.70;99.90;;;;;;5111528;28;20028;-64
2022/01/08 06:15:42;;;;;;;2.45;1.45;;;2.70;99.90;;;;;;5113086;28;20078;-64
2022/01/08 06:18:08;;;;;;;1.77;0.68;;;2.80;99.90;;;;;;5113704;28;20027;-63
2022/01/08 06:20:33;;;;;;;0.60;0.52;;;2.90;99.90;;;;;;5112595;28;20116;-65
2022/01/08 06:22:59;;;;;;;0.98;0.65;;;2.90;99.90;;;;;;5113076;28;20052;-68
2022/01/08 06:25:25;;;;;;;1.17;0.60;;;2.90;99.90;;;;;;5112819;28;20457;-63
2022/01/08 06:27:50;;;;;;;2.00;1.48;;;3.00;99.90;;;;;;5113373;28;20083;-66
2022/01/08 06:30:16;;;;;;;1.63;0.88;;;3.00;99.90;;;;;;5113204;28;20030;-64
2022/01/08 06:32:42;;;;;;;1.08;0.60;;;2.90;99.90;;;;;;5112492;28;20118;-64
2022/01/08 06:35:07;;;;;;;0.95;0.80;;;2.80;99.90;;;;;;5112791;28;20028;-63
2022/01/08 06:37:33;;;;;;;1.08;0.50;;;2.80;99.90;;;;;;5112505;28;20027;-65
2022/01/08 06:39:59;;;;;;;2.47;0.73;;;2.80;99.90;;;;;;5114054;28;20389;-66
2022/01/08 06:42:27;;;;;;;1.15;0.70;;;2.80;99.90;;;;;;5113338;28;20062;-64
2022/01/08 06:44:52;;;;;;;1.35;0.55;;;2.80;99.90;;;;;;5094076;28;20028;-64
2022/01/08 06:47:18;;;;;;;1.42;0.75;;;2.90;99.90;;;;;;5111037;28;20092;-67
2022/01/08 06:49:46;;;;;;;2.00;1.20;;;2.90;99.90;;;;;;5112967;28;20027;-64
2022/01/08 06:52:12;;;;;;;1.13;0.82;;;2.90;99.90;;;;;;5111426;28;20149;-69
2022/01/08 06:54:37;;;;;;;1.17;0.70;;;2.90;99.90;;;;;;5112055;28;20202;-65
2022/01/08 06:57:03;;;;;;;1.13;0.45;;;2.90;99.90;;;;;;5112429;28;20035;-65
2022/01/08 06:59:29;;;;;;;3.72;0.70;;;2.90;99.90;;;;;;5110830;28;20055;-65
2022/01/08 07:01:54;;;;;;;2.78;0.70;;;2.80;99.90;;;;;;5112435;28;20431;-65
2022/01/08 07:04:20;;;;;;;2.08;0.80;;;2.80;99.90;;;;;;5112245;28;20391;-65
2022/01/08 07:06:45;;;;;;;1.75;0.77;;;2.80;99.90;;;;;;5112684;28;20107;-70
2022/01/08 07:09:11;;;;;;;2.08;1.00;;;2.80;99.90;;;;;;5113231;28;20030;-73
2022/01/08 07:11:37;;;;;;;1.38;1.00;;;2.70;99.90;;;;;;5112810;28;20023;-68
2022/01/08 07:14:03;;;;;;;1.63;1.05;;;2.70;99.90;;;;;;5113601;28;20485;-74
2022/01/08 07:16:28;;;;;;;1.90;1.27;;;2.60;99.90;;;;;;5112455;28;20031;-65
2022/01/08 07:18:54;;;;;;;3.05;1.73;;;2.50;99.90;;;;;;5112920;28;20375;-68
2022/01/08 07:21:20;;;;;;;3.25;1.77;;;2.50;99.90;;;;;;5113002;28;20083;-70
2022/01/08 07:23:45;;;;;;;2.10;1.65;;;2.50;99.90;;;;;;5113201;28;20035;-66
2022/01/08 07:26:11;;;;;;;4.28;1.90;;;2.70;99.90;;;;;;5113099;28;20032;-66
2022/01/08 07:28:39;;;;;;;5.07;3.33;;;2.70;99.90;;;;;;5113437;28;20485;-66
2022/01/08 07:31:05;;;;;;;4.57;2.25;;;2.70;99.90;;;;;;5112225;28;20035;-65
2022/01/08 07:33:31;;;;;;;2.58;1.80;;;2.80;99.90;;;;;;5111802;28;20415;-65
2022/01/08 07:35:56;;;;;;;3.20;1.92;;;2.80;99.90;;;;;;5112502;28;20059;-65
2022/01/08 07:38:22;;;;;;;6.75;2.40;;;2.80;99.90;;;;;;5111948;28;20422;-66
2022/01/08 07:40:51;;;;;;;6.20;3.33;;;2.80;99.90;;;;;;5112333;28;20047;-64
2022/01/08 07:43:17;;;;;;;4.45;2.47;;;2.80;99.90;;;;;;5112573;28;20085;-64
2022/01/08 07:45:43;;;;;;;3.85;2.45;;;2.80;99.90;;;;;;5110247;28;20038;-67
2022/01/08 07:48:09;;;;;;;6.95;3.30;;;2.90;99.90;;;;;;5112337;28;20027;-64
2022/01/08 07:50:35;;;;;;;6.40;3.72;;;2.90;99.90;;;;;;5110189;28;20016;-66
2022/01/08 07:53:00;;;;;;;6.38;3.40;;;2.90;99.90;;;;;;5112191;28;20024;-64
2022/01/08 07:55:26;;;;;;;5.53;3.90;;;3.00;99.90;;;;;;5111664;28;20027;-67
2022/01/08 07:57:51;;;;;;;4.90;3.50;;;3.00;99.90;;;;;;5112966;28;20426;-64
2022/01/08 08:00:17;;;;;;;8.85;4.03;;;3.20;99.90;;;;;;5114916;28;20080;-66
2022/01/08 08:02:44;;;;;;;10.15;4.80;;;3.30;99.90;;;;;;5115547;27;20491;-65
2022/01/08 08:05:10;;;;;;;7.68;5.88;;;3.30;99.90;;;;;;5116321;28;20441;-66
2022/01/08 08:07:39;;;;;;;9.93;6.25;;;3.40;99.90;;;;;;5116193;28;20122;-64
2022/01/08 08:10:10;;;;;;;11.38;7.07;;;3.50;99.90;;;;;;5121168;27;20028;-64
2022/01/08 08:12:39;;;;;;;14.73;6.93;;;3.80;99.90;;;;;;5113303;28;20048;-64
2022/01/08 08:15:06;;;;;;;11.63;7.78;;;3.90;99.90;;;;;;5116233;27;20035;-66
2022/01/08 08:17:33;;;;;;;12.35;7.25;;;4.00;99.90;;;;;;5135226;27;20425;-65
2022/01/08 08:19:59;;;;;;;12.15;7.50;;;3.90;99.90;;;;;;5118175;27;20524;-66
2022/01/08 08:22:25;;;;;;;12.88;8.27;;;3.90;99.90;;;;;;5115339;27;20135;-66
2022/01/08 08:24:50;;;;;;;12.88;8.18;;;3.80;99.90;;;;;;5121303;27;20055;-66
2022/01/08 08:27:16;;;;;;;10.48;7.25;;;3.80;99.90;;;;;;5129590;27;20031;-64
2022/01/08 08:29:41;;;;;;;12.13;7.43;;;3.80;99.90;;;;;;5113592;28;20019;-68
2022/01/08 08:32:08;;;;;;;12.05;7.70;;;3.80;99.90;;;;;;5126684;27;20031;-66
2022/01/08 08:34:34;;;;;;;13.85;7.03;;;3.70;99.90;;;;;;5126719;27;20035;-66
2022/01/08 08:37:00;;;;;;;14.20;8.10;;;3.80;99.90;;;;;;5120729;27;20024;-65
2022/01/08 08:39:26;;;;;;;14.43;7.93;;;3.80;99.90;;;;;;5114591;27;20556;-69
2022/01/08 08:41:52;;;;;;;10.57;6.25;;;3.90;99.90;;;;;;5123865;27;20037;-66
2022/01/08 08:44:17;;;;;;;13.85;6.28;;;3.90;99.90;;;;;;5115417;27;20035;-66
2022/01/08 08:46:43;;;;;;;13.23;6.72;;;4.00;99.90;;;;;;5113276;28;20114;-66
2022/01/08 08:49:09;;;;;;;9.38;5.32;;;4.30;99.90;;;;;;5122308;27;20076;-68
2022/01/08 08:51:35;;;;;;;10.40;5.30;;;4.70;99.90;;;;;;5132480;27;20027;-65
2022/01/08 08:54:01;;;;;;;13.60;7.00;;;4.50;99.90;;;;;;5124912;27;20032;-65
2022/01/08 08:56:28;;;;;;;9.80;6.05;;;4.40;99.90;;;;;;5117603;27;20043;-64
2022/01/08 08:58:54;;;;;;;10.45;6.30;;;4.20;99.90;;;;;;5115632;28;20020;-66
2022/01/08 09:01:19;;;;;;;10.15;5.65;;;4.00;99.90;;;;;;5113676;28;20100;-65
2022/01/08 09:03:45;;;;;;;10.13;6.68;;;3.90;99.90;;;;;;5113500;28;20587;-67
2022/01/08 09:06:10;;;;;;;13.48;5.93;;;4.00;99.90;;;;;;5113988;28;20032;-66
2022/01/08 09:08:36;;;;;;;15.20;5.85;;;4.00;99.90;;;;;;5118873;27;20465;-64
2022/01/08 09:11:02;;;;;;;11.52;5.55;;;4.10;99.90;;;;;;5119925;27;20034;-65
2022/01/08 09:13:28;;;;;;;9.57;5.68;;;4.10;99.90;;;;;;5120969;27;20083;-66
2022/01/08 09:15:54;;;;;;;10.23;6.30;;;4.10;99.90;;;;;;5127513;27;20076;-65
2022/01/08 09:18:20;;;;;;;13.65;6.75;;;4.10;99.90;;;;;;5126821;27;20053;-65
2022/01/08 09:20:46;;;;;;;10.65;5.47;;;4.10;99.90;;;;;;5112650;28;20059;-67
2022/01/08 09:23:12;;;;;;;10.48;5.70;;;4.00;99.90;;;;;;5113898;28;20054;-65
2022/01/08 09:25:37;;;;;;;9.95;5.65;;;3.90;99.90;;;;;;5113940;28;20027;-66
2022/01/08 09:28:03;;;;;;;10.00;4.53;;;4.00;99.90;;;;;;5113181;28;20035;-66
2022/01/08 09:30:29;;;;;;;16.88;5.07;;;3.90;99.90;;;;;;5112649;28;20031;-66
2022/01/08 09:32:55;;;;;;;9.95;3.75;;;3.80;99.90;;;;;;5113332;28;20024;-64
2022/01/08 09:35:22;;;;;;;12.40;6.15;;;3.90;99.90;;;;;;5117472;27;20031;-66
2022/01/08 09:37:48;;;;;;;7.80;4.30;;;3.90;99.90;;;;;;5130408;27;20137;-75
2022/01/08 09:40:16;;;;;;;7.30;5.00;;;4.00;99.90;;;;;;5119628;27;20024;-75
2022/01/08 09:42:44;;;;;;;14.43;5.30;;;4.00;99.90;;;;;;5121319;27;20529;-67
2022/01/08 09:45:11;;;;;;;9.32;5.13;;;4.10;99.90;;;;;;5117693;27;20380;-66
2022/01/08 09:47:38;;;;;;;11.13;4.20;;;4.10;99.90;;;;;;5120506;27;20333;-65
2022/01/08 09:50:05;;;;;;;9.77;4.20;;;3.80;99.90;;;;;;5120298;27;20110;-64
2022/01/08 09:52:32;;;;;;;9.32;4.70;;;3.70;99.90;;;;;;5127520;27;20020;-67
2022/01/08 09:54:58;;;;;;;9.25;5.25;;;3.70;99.90;;;;;;5112983;28;20066;-64
2022/01/08 09:57:24;;;;;;;10.27;5.38;;;3.60;99.90;;;;;;5119041;27;20059;-66
2022/01/08 09:59:50;;;;;;;12.65;5.70;;;3.60;99.90;;;;;;5124987;27;20143;-65
2022/01/08 10:02:21;;;;;;;13.00;5.28;;;3.60;99.90;;;;;;5134272;27;20469;-65
2022/01/08 10:04:48;;;;;;;11.20;5.15;;;3.70;99.90;;;;;;5125310;27;20037;-66
2022/01/08 10:07:13;;;;;;;8.43;4.65;;;3.60;99.90;;;;;;5122220;27;20039;-67
2022/01/08 10:10:17;;;;;;;18.85;4.93;;;3.50;99.90;;;;;;5120255;27;20482;-65
2022/01/08 10:12:54;;;;;;;12.27;5.82;;;3.50;99.90;;;;;;5115351;27;20146;-66
2022/01/08 10:18:27;;;;;;;10.63;4.95;;;3.60;99.90;;;;;;5113848;28;20054;-66
2022/01/08 10:20:55;;;;;;;14.15;5.45;;;3.70;99.90;;;;;;5112417;28;20023;-67
2022/01/08 10:23:22;;;;;;;6.20;4.07;;;3.80;99.90;;;;;;5115699;27;20019;-68
2022/01/08 10:26:13;;;;;;;10.90;4.53;;;3.90;99.90;;;;;;5131634;27;20132;-66
2022/01/08 10:28:41;;;;;;;17.80;4.57;;;3.90;99.90;;;;;;5111261;28;20027;-65
2022/01/08 10:31:12;;;;;;;12.13;4.63;;;3.80;99.90;;;;;;5112478;28;20032;-65
2022/01/08 10:33:38;;;;;;;9.50;4.37;;;3.70;99.90;;;;;;5131098;27;20098;-66
2022/01/08 10:36:05;;;;;;;8.15;3.75;;;3.80;99.90;;;;;;5134687;27;20265;-69
2022/01/08 10:38:33;;;;;;;9.05;3.55;;;4.00;99.90;;;;;;5130235;27;20049;-66
2022/01/08 10:41:03;;;;;;;11.13;4.07;;;4.20;99.90;;;;;;5114953;27;20028;-67
2022/01/08 10:43:31;;;;;;;8.52;3.88;;;4.30;99.90;;;;;;5120999;27;20034;-66
2022/01/08 10:46:13;;;;;;;7.20;3.97;;;4.50;99.90;;;;;;5111962;28;20036;-66
2022/01/08 10:48:42;;;;;;;;;;;4.50;99.90;;;;;;5113847;27;20377;-66
2022/01/08 10:51:12;;;;;;;8.05;3.33;;;4.90;99.90;;;;;;5112516;28;19904;-66
2022/01/08 10:54:10;;;;;;;8.70;3.88;;;6.00;99.90;;;;;;5112053;28;20457;-68
2022/01/08 10:56:49;;;;;;;8.20;3.90;;;6.60;99.90;;;;;;5083358;27;20092;-70
2022/01/08 10:59:23;;;;;;;6.85;2.63;;;7.10;99.90;;;;;;5112439;28;20031;-67
2022/01/08 11:01:52;;;;;;;6.55;3.40;;;7.40;99.90;;;;;;5111333;28;20054;-70
2022/01/08 11:04:46;;;;;;;12.07;4.95;;;7.80;99.90;;;;;;5118345;27;20365;-66
2022/01/08 11:07:17;;;;;;;7.18;2.97;;;8.50;99.90;;;;;;5123053;27;20039;-65
2022/01/08 11:09:44;;;;;;;8.95;3.05;;;8.70;99.90;;;;;;5111565;28;20397;-64
2022/01/08 11:12:16;;;;;;;6.18;2.45;;;8.80;99.90;;;;;;5110655;28;20031;-66
2022/01/08 11:14:47;;;;;;;6.75;3.47;;;8.40;99.90;;;;;;5128771;27;20028;-64
2022/01/08 11:17:20;;;;;;;8.70;2.80;;;7.90;99.90;;;;;;5132819;27;20038;-69
2022/01/08 11:19:48;;;;;;;8.70;2.58;;;8.30;99.90;;;;;;5124247;27;20098;-67
2022/01/08 11:22:17;;;;;;;6.32;2.65;;;8.90;99.90;;;;;;5115891;28;20113;-67
2022/01/08 11:24:59;;;;;;;6.90;2.67;;;8.60;99.90;;;;;;5111234;28;20027;-64
2022/01/08 11:27:31;;;;;;;4.40;2.20;;;9.00;99.90;;;;;;5116514;28;20107;-67
2022/01/08 11:30:09;;;;;;;9.60;2.97;;;9.20;99.90;;;;;;5116740;28;20051;-65
2022/01/08 11:32:36;;;;;;;7.97;2.83;;;9.40;99.90;;;;;;5112043;27;20139;-69
2022/01/08 11:35:05;;;;;;;12.18;2.72;;;10.80;99.90;;;;;;5115995;28;20032;-64
2022/01/08 11:37:32;;;;;;;8.13;2.10;;;10.90;99.90;;;;;;5126221;27;20038;-67
2022/01/08 11:40:03;;;;;;;8.30;2.40;;;11.20;99.90;;;;;;5127285;27;20052;-67
2022/01/08 11:42:31;;;;;;;7.30;3.08;;;11.10;99.90;;;;;;5116988;27;20028;-67
2022/01/08 11:45:01;;;;;;;5.70;2.58;;;11.30;99.90;;;;;;5116898;28;20032;-64
2022/01/08 11:47:29;;;;;;;7.30;2.30;;;11.20;99.90;;;;;;5125828;27;20035;-65
2022/01/08 11:49:57;;;;;;;11.25;2.63;;;10.70;99.90;;;;;;5121366;27;20046;-68
2022/01/08 11:52:24;;;;;;;9.60;2.55;;;10.30;99.90;;;;;;5111836;27;20028;-69
2022/01/08 11:54:54;;;;;;;10.35;2.97;;;9.60;99.90;;;;;;5118174;27;20026;-68
2022/01/08 11:57:29;;;;;;;7.05;2.20;;;9.10;99.90;;;;;;5115059;28;20024;-68
2022/01/08 11:59:58;;;;;;;7.80;3.53;;;8.80;99.90;;;;;;5126540;27;20035;-68
2022/01/08 12:02:42;;;;;;;4.97;2.70;;;8.80;99.90;;;;;;5124117;27;20040;-66
2022/01/08 12:05:12;;;;;;;6.15;2.30;;;8.30;99.90;;;;;;5117452;27;20118;-67
2022/01/08 12:07:43;;;;;;;7.83;2.73;;;7.90;99.90;;;;;;5132146;27;20185;-67
2022/01/08 12:10:19;;;;;;;8.23;3.45;;;7.90;99.90;;;;;;5131536;27;20276;-65
2022/01/08 12:13:00;;;;;;;6.07;3.05;;;7.60;99.90;;;;;;5130088;27;20067;-68
2022/01/08 12:15:41;;;;;;;8.85;2.90;;;7.60;99.90;;;;;;5132801;27;20080;-66
2022/01/08 12:18:09;;;;;;;8.02;3.03;;;7.50;99.90;;;;;;5131707;27;20031;-68
2022/01/08 12:20:53;;;;;;;7.72;2.55;;;7.80;99.90;;;;;;5131667;27;20030;-67
2022/01/08 12:23:38;;;;;;;6.57;2.35;;;8.30;99.90;;;;;;5130494;27;20373;-68
2022/01/08 12:26:27;;;;;;;6.13;2.50;;;9.30;99.90;;;;;;5130332;27;20113;-65
2022/01/08 12:29:00;;;;;;;5.60;2.35;;;10.20;99.90;;;;;;5130765;27;20066;-67
2022/01/08 12:31:44;;;;;;;7.40;3.17;;;10.80;99.90;;;;;;5131301;27;20059;-67
2022/01/08 12:34:27;;;;;;;8.98;3.63;;;11.70;99.90;;;;;;5130264;27;20031;-67
2022/01/08 12:36:54;;;;;;;4.80;2.20;;;11.10;99.90;;;;;;5108796;28;20039;-66
2022/01/08 12:39:48;;;;;;;8.65;2.40;;;10.80;99.90;;;;;;5110953;28;20024;-67
2022/01/08 12:42:19;;;;;;;5.72;2.17;;;10.00;99.90;;;;;;5109516;28;20513;-67
2022/01/08 12:45:06;;;;;;;;;;;9.80;99.90;;;;;;5108379;28;20030;-71
2022/01/08 12:47:38;;;;;;;6.97;1.65;;;9.90;99.90;;;;;;5110631;28;19916;-67
2022/01/08 12:50:32;;;;;;;5.30;2.10;;;9.10;99.90;;;;;;5125226;27;20027;-67
2022/01/08 12:53:03;;;;;;;4.28;2.00;;;7.90;99.90;;;;;;5121574;27;20485;-68
2022/01/08 12:55:30;;;;;;;;;;;7.40;99.90;;;;;;5124163;27;20031;-66
2022/01/08 12:57:56;;;;;;;5.00;2.00;;;7.00;99.90;;;;;;5115085;27;20032;-69
2022/01/08 13:00:24;;;;;;;6.28;2.08;;;6.90;99.90;;;;;;5116254;27;20058;-68
2022/01/08 13:02:50;;;;;;;4.35;1.98;;;6.60;99.90;;;;;;5120072;27;20039;-70
2022/01/08 13:05:16;;;;;;;9.02;2.42;;;6.40;99.90;;;;;;5129878;27;20050;-68
2022/01/08 13:07:52;;;;;;;9.27;2.55;;;6.20;99.90;;;;;;5118136;27;20054;-67
2022/01/08 13:10:19;;;;;;;7.78;2.50;;;6.00;99.90;;;;;;5112087;27;20491;-67
2022/01/08 13:13:01;;;;;;;5.93;3.03;;;6.00;99.90;;;;;;5119784;27;20173;-71
2022/01/08 13:15:34;;;;;;;6.93;3.60;;;5.60;99.90;;;;;;5125622;27;20027;-68
2022/01/08 13:18:19;;;;;;;7.40;3.20;;;5.40;99.90;;;;;;5123344;27;20027;-68
2022/01/08 13:20:45;;;;;;;6.93;2.42;;;5.60;99.90;;;;;;5112889;27;20034;-68
2022/01/08 13:23:12;;;;;;;7.55;2.67;;;5.20;99.90;;;;;;5122106;27;20027;-65